Auke Bay, Alaska
Current Conditions -  °F | °C
As of 2:53 AM on Monday 24 Nov 2014 (Local Time) from PAJN Reporting Station
Light Rain Light Rain  
Wind Chill: 37°   Ceiling: 3700
Heat Index: 40°   Visibility: 10mi
Dew Point: 38°   Wind: 5mph
Humidity: 93%   Direction: 50°NE
Pressure: 29.7"   Gusts: NA
Location:  58.38°N, 134.67°W
Report Text: PAJN 241153Z 05004KT 10SM -RA BKN037 OVC070 04/03 A2970 RMK AO2 SLP057 P0001 60002 70007 T00440033 10050 20039 58026
Loading
Personal Weather Stations






























Interactive Weather Map New forecast layout! Learn more

10-Day Weather Forecast

Advertisements
Track Severe Weather on mobile